sensor_id;sensor_type;location;lat;lon;timestamp;temperature;humidity
37910;DHT22;23741;49.446;8.754;2024-03-22T00:00:10;15.00;59.00
37910;DHT22;23741;49.446;8.754;2024-03-22T00:02:14;15.00;58.80
37910;DHT22;23741;49.446;8.754;2024-03-22T00:04:15;14.90;58.80
37910;DHT22;23741;49.446;8.754;2024-03-22T00:06:16;14.90;58.70
37910;DHT22;23741;49.446;8.754;2024-03-22T00:08:17;14.90;58.60
37910;DHT22;23741;49.446;8.754;2024-03-22T00:10:18;14.90;58.50
37910;DHT22;23741;49.446;8.754;2024-03-22T00:12:18;14.90;59.00
37910;DHT22;23741;49.446;8.754;2024-03-22T00:14:19;14.90;58.90
37910;DHT22;23741;49.446;8.754;2024-03-22T00:16:20;14.80;58.70
37910;DHT22;23741;49.446;8.754;2024-03-22T00:18:21;14.80;58.60
37910;DHT22;23741;49.446;8.754;2024-03-22T00:20:22;14.80;58.70
37910;DHT22;23741;49.446;8.754;2024-03-22T00:22:23;14.80;59.10
37910;DHT22;23741;49.446;8.754;2024-03-22T00:24:23;14.70;59.10
37910;DHT22;23741;49.446;8.754;2024-03-22T00:26:24;14.70;59.30
37910;DHT22;23741;49.446;8.754;2024-03-22T00:28:25;14.70;59.20
37910;DHT22;23741;49.446;8.754;2024-03-22T00:30:26;14.60;59.10
37910;DHT22;23741;49.446;8.754;2024-03-22T00:32:27;14.60;59.20
37910;DHT22;23741;49.446;8.754;2024-03-22T00:34:27;14.60;59.40
37910;DHT22;23741;49.446;8.754;2024-03-22T00:36:28;14.60;59.60
37910;DHT22;23741;49.446;8.754;2024-03-22T00:38:29;14.50;59.60
37910;DHT22;23741;49.446;8.754;2024-03-22T00:40:30;14.50;59.80
37910;DHT22;23741;49.446;8.754;2024-03-22T00:42:31;14.50;59.70
37910;DHT22;23741;49.446;8.754;2024-03-22T00:44:31;14.50;60.00
37910;DHT22;23741;49.446;8.754;2024-03-22T00:46:32;14.50;59.70
37910;DHT22;23741;49.446;8.754;2024-03-22T00:48:33;14.50;59.90
37910;DHT22;23741;49.446;8.754;2024-03-22T00:50:35;14.40;59.90
37910;DHT22;23741;49.446;8.754;2024-03-22T00:52:36;14.40;59.60
37910;DHT22;23741;49.446;8.754;2024-03-22T00:54:37;14.40;59.80
37910;DHT22;23741;49.446;8.754;2024-03-22T00:56:40;14.40;60.00
37910;DHT22;23741;49.446;8.754;2024-03-22T00:58:40;14.40;60.30
37910;DHT22;23741;49.446;8.754;2024-03-22T01:00:41;14.40;61.20
37910;DHT22;23741;49.446;8.754;2024-03-22T01:02:42;14.40;60.50
37910;DHT22;23741;49.446;8.754;2024-03-22T01:04:43;14.30;59.80
37910;DHT22;23741;49.446;8.754;2024-03-22T01:06:44;14.30;59.70
37910;DHT22;23741;49.446;8.754;2024-03-22T01:08:45;14.30;60.70
37910;DHT22;23741;49.446;8.754;2024-03-22T01:10:45;14.30;60.20
37910;DHT22;23741;49.446;8.754;2024-03-22T01:12:46;14.30;59.90
37910;DHT22;23741;49.446;8.754;2024-03-22T01:14:47;14.30;59.90
37910;DHT22;23741;49.446;8.754;2024-03-22T01:16:48;14.30;59.80
37910;DHT22;23741;49.446;8.754;2024-03-22T01:18:49;14.20;59.90
37910;DHT22;23741;49.446;8.754;2024-03-22T01:20:49;14.20;60.10
37910;DHT22;23741;49.446;8.754;2024-03-22T01:22:50;14.20;60.20
37910;DHT22;23741;49.446;8.754;2024-03-22T01:24:51;14.20;60.30
37910;DHT22;23741;49.446;8.754;2024-03-22T01:26:52;14.20;59.80
37910;DHT22;23741;49.446;8.754;2024-03-22T01:28:53;14.10;60.00
37910;DHT22;23741;49.446;8.754;2024-03-22T01:30:54;14.10;60.00
37910;DHT22;23741;49.446;8.754;2024-03-22T01:32:55;14.10;59.90
37910;DHT22;23741;49.446;8.754;2024-03-22T01:34:57;14.10;60.50
37910;DHT22;23741;49.446;8.754;2024-03-22T01:36:58;14.10;60.60
37910;DHT22;23741;49.446;8.754;2024-03-22T01:38:59;14.00;60.40
37910;DHT22;23741;49.446;8.754;2024-03-22T01:41:00;14.00;60.80
37910;DHT22;23741;49.446;8.754;2024-03-22T01:43:01;14.00;60.50
37910;DHT22;23741;49.446;8.754;2024-03-22T01:45:02;14.00;60.50
37910;DHT22;23741;49.446;8.754;2024-03-22T01:47:04;13.90;60.60
37910;DHT22;23741;49.446;8.754;2024-03-22T01:49:05;13.90;61.40
37910;DHT22;23741;49.446;8.754;2024-03-22T01:51:05;13.90;60.30
37910;DHT22;23741;49.446;8.754;2024-03-22T01:53:06;13.90;60.00
37910;DHT22;23741;49.446;8.754;2024-03-22T01:55:07;13.90;60.10
37910;DHT22;23741;49.446;8.754;2024-03-22T01:57:08;13.80;60.60
37910;DHT22;23741;49.446;8.754;2024-03-22T01:59:09;13.80;60.90
37910;DHT22;23741;49.446;8.754;2024-03-22T02:01:10;13.80;60.70
37910;DHT22;23741;49.446;8.754;2024-03-22T02:03:10;13.80;60.50
37910;DHT22;23741;49.446;8.754;2024-03-22T02:05:14;13.80;60.20
37910;DHT22;23741;49.446;8.754;2024-03-22T02:07:16;13.80;60.70
37910;DHT22;23741;49.446;8.754;2024-03-22T02:09:17;13.70;60.40
37910;DHT22;23741;49.446;8.754;2024-03-22T02:11:18;13.70;60.60
37910;DHT22;23741;49.446;8.754;2024-03-22T02:13:19;13.70;60.90
37910;DHT22;23741;49.446;8.754;2024-03-22T02:15:20;13.70;61.30
37910;DHT22;23741;49.446;8.754;2024-03-22T02:17:21;13.70;61.20
37910;DHT22;23741;49.446;8.754;2024-03-22T02:19:21;13.70;60.70
37910;DHT22;23741;49.446;8.754;2024-03-22T02:21:22;13.70;60.90
37910;DHT22;23741;49.446;8.754;2024-03-22T02:23:30;13.70;60.90
37910;DHT22;23741;49.446;8.754;2024-03-22T02:25:31;13.60;61.10
37910;DHT22;23741;49.446;8.754;2024-03-22T02:27:32;13.70;61.20
37910;DHT22;23741;49.446;8.754;2024-03-22T02:29:33;13.60;61.70
37910;DHT22;23741;49.446;8.754;2024-03-22T02:31:33;13.60;61.70
37910;DHT22;23741;49.446;8.754;2024-03-22T02:33:34;13.60;61.70
37910;DHT22;23741;49.446;8.754;2024-03-22T02:35:35;13.60;61.80
37910;DHT22;23741;49.446;8.754;2024-03-22T02:37:36;13.60;61.60
37910;DHT22;23741;49.446;8.754;2024-03-22T02:39:36;13.60;61.10
37910;DHT22;23741;49.446;8.754;2024-03-22T02:41:37;13.60;61.70
37910;DHT22;23741;49.446;8.754;2024-03-22T02:43:38;13.60;61.80
37910;DHT22;23741;49.446;8.754;2024-03-22T02:45:39;13.60;62.10
37910;DHT22;23741;49.446;8.754;2024-03-22T02:47:40;13.60;62.20
37910;DHT22;23741;49.446;8.754;2024-03-22T02:49:40;13.60;62.10
37910;DHT22;23741;49.446;8.754;2024-03-22T02:51:41;13.50;62.10
37910;DHT22;23741;49.446;8.754;2024-03-22T02:53:42;13.60;62.30
37910;DHT22;23741;49.446;8.754;2024-03-22T02:55:43;13.50;62.20
37910;DHT22;23741;49.446;8.754;2024-03-22T02:57:44;13.50;61.70
37910;DHT22;23741;49.446;8.754;2024-03-22T02:59:44;13.60;61.60
37910;DHT22;23741;49.446;8.754;2024-03-22T03:01:45;13.60;61.90
37910;DHT22;23741;49.446;8.754;2024-03-22T03:03:46;13.50;62.00
37910;DHT22;23741;49.446;8.754;2024-03-22T03:05:47;13.50;61.80
37910;DHT22;23741;49.446;8.754;2024-03-22T03:07:48;13.50;61.70
37910;DHT22;23741;49.446;8.754;2024-03-22T03:09:48;13.50;61.50
37910;DHT22;23741;49.446;8.754;2024-03-22T03:11:49;13.50;61.50
37910;DHT22;23741;49.446;8.754;2024-03-22T03:13:50;13.50;61.40
37910;DHT22;23741;49.446;8.754;2024-03-22T03:15:51;13.50;62.00
37910;DHT22;23741;49.446;8.754;2024-03-22T03:17:52;13.50;62.30
37910;DHT22;23741;49.446;8.754;2024-03-22T03:19:52;13.50;62.40
37910;DHT22;23741;49.446;8.754;2024-03-22T03:21:53;13.50;62.20
37910;DHT22;23741;49.446;8.754;2024-03-22T03:23:54;13.50;62.20
37910;DHT22;23741;49.446;8.754;2024-03-22T03:25:55;13.50;62.10
37910;DHT22;23741;49.446;8.754;2024-03-22T03:27:55;13.50;62.40
37910;DHT22;23741;49.446;8.754;2024-03-22T03:29:56;13.50;62.30
37910;DHT22;23741;49.446;8.754;2024-03-22T03:31:57;13.50;62.20
37910;DHT22;23741;49.446;8.754;2024-03-22T03:33:58;13.60;62.50
37910;DHT22;23741;49.446;8.754;2024-03-22T03:35:59;13.50;62.30
37910;DHT22;23741;49.446;8.754;2024-03-22T03:38:00;13.50;62.50
37910;DHT22;23741;49.446;8.754;2024-03-22T03:40:01;13.50;62.70
37910;DHT22;23741;49.446;8.754;2024-03-22T03:42:01;13.60;62.40
37910;DHT22;23741;49.446;8.754;2024-03-22T03:44:02;13.60;62.10
37910;DHT22;23741;49.446;8.754;2024-03-22T03:46:03;13.60;62.40
37910;DHT22;23741;49.446;8.754;2024-03-22T03:48:04;13.60;62.30
37910;DHT22;23741;49.446;8.754;2024-03-22T03:50:05;13.60;62.50
37910;DHT22;23741;49.446;8.754;2024-03-22T03:52:06;13.60;62.70
37910;DHT22;23741;49.446;8.754;2024-03-22T03:54:06;13.60;62.50
37910;DHT22;23741;49.446;8.754;2024-03-22T03:56:07;13.60;62.20
37910;DHT22;23741;49.446;8.754;2024-03-22T03:58:08;13.60;62.50
37910;DHT22;23741;49.446;8.754;2024-03-22T04:00:09;13.70;62.30
37910;DHT22;23741;49.446;8.754;2024-03-22T04:02:10;13.60;62.10
37910;DHT22;23741;49.446;8.754;2024-03-22T04:04:12;13.60;62.00
37910;DHT22;23741;49.446;8.754;2024-03-22T04:06:13;13.60;62.20
37910;DHT22;23741;49.446;8.754;2024-03-22T04:08:13;13.60;62.40
37910;DHT22;23741;49.446;8.754;2024-03-22T04:10:14;13.60;62.20
37910;DHT22;23741;49.446;8.754;2024-03-22T04:12:15;13.60;61.70
37910;DHT22;23741;49.446;8.754;2024-03-22T04:14:16;13.60;62.20
37910;DHT22;23741;49.446;8.754;2024-03-22T04:16:17;13.60;62.10
37910;DHT22;23741;49.446;8.754;2024-03-22T04:18:17;13.60;62.00
37910;DHT22;23741;49.446;8.754;2024-03-22T04:20:18;13.60;62.00
37910;DHT22;23741;49.446;8.754;2024-03-22T04:22:19;13.60;62.10
37910;DHT22;23741;49.446;8.754;2024-03-22T04:24:20;13.60;62.40
37910;DHT22;23741;49.446;8.754;2024-03-22T04:26:21;13.60;62.50
37910;DHT22;23741;49.446;8.754;2024-03-22T04:28:22;13.60;62.50
37910;DHT22;23741;49.446;8.754;2024-03-22T04:30:23;13.60;62.60
37910;DHT22;23741;49.446;8.754;2024-03-22T04:32:24;13.60;62.50
37910;DHT22;23741;49.446;8.754;2024-03-22T04:34:25;13.60;62.50
37910;DHT22;23741;49.446;8.754;2024-03-22T04:36:25;13.60;62.90
37910;DHT22;23741;49.446;8.754;2024-03-22T04:38:27;13.60;62.80
37910;DHT22;23741;49.446;8.754;2024-03-22T04:40:28;13.60;62.40
37910;DHT22;23741;49.446;8.754;2024-03-22T04:42:30;13.60;62.50
37910;DHT22;23741;49.446;8.754;2024-03-22T04:44:31;13.60;62.10
37910;DHT22;23741;49.446;8.754;2024-03-22T04:46:32;13.60;62.00
37910;DHT22;23741;49.446;8.754;2024-03-22T04:48:33;13.60;62.30
37910;DHT22;23741;49.446;8.754;2024-03-22T04:50:34;13.60;62.40
37910;DHT22;23741;49.446;8.754;2024-03-22T04:52:34;13.60;62.00
37910;DHT22;23741;49.446;8.754;2024-03-22T04:54:35;13.50;61.80
37910;DHT22;23741;49.446;8.754;2024-03-22T04:56:36;13.60;62.30
37910;DHT22;23741;49.446;8.754;2024-03-22T04:58:37;13.60;62.20
37910;DHT22;23741;49.446;8.754;2024-03-22T05:00:37;13.50;62.30
37910;DHT22;23741;49.446;8.754;2024-03-22T05:02:38;13.60;62.30
37910;DHT22;23741;49.446;8.754;2024-03-22T05:04:40;13.50;62.10
37910;DHT22;23741;49.446;8.754;2024-03-22T05:06:41;13.60;62.30
37910;DHT22;23741;49.446;8.754;2024-03-22T05:08:42;13.50;62.00
37910;DHT22;23741;49.446;8.754;2024-03-22T05:10:43;13.50;62.00
37910;DHT22;23741;49.446;8.754;2024-03-22T05:12:43;13.50;62.40
37910;DHT22;23741;49.446;8.754;2024-03-22T05:14:44;13.50;62.40
37910;DHT22;23741;49.446;8.754;2024-03-22T05:16:45;13.50;62.40
37910;DHT22;23741;49.446;8.754;2024-03-22T05:18:46;13.50;62.20
37910;DHT22;23741;49.446;8.754;2024-03-22T05:20:47;13.50;62.60
37910;DHT22;23741;49.446;8.754;2024-03-22T05:22:47;13.50;62.40
37910;DHT22;23741;49.446;8.754;2024-03-22T05:24:48;13.50;62.50
37910;DHT22;23741;49.446;8.754;2024-03-22T05:26:49;13.50;62.80
37910;DHT22;23741;49.446;8.754;2024-03-22T05:28:50;13.50;62.90
37910;DHT22;23741;49.446;8.754;2024-03-22T05:30:51;13.50;62.70
37910;DHT22;23741;49.446;8.754;2024-03-22T05:32:51;13.60;63.10
37910;DHT22;23741;49.446;8.754;2024-03-22T05:34:52;13.60;63.00
37910;DHT22;23741;49.446;8.754;2024-03-22T05:36:53;13.60;63.40
37910;DHT22;23741;49.446;8.754;2024-03-22T05:38:54;13.60;63.30
37910;DHT22;23741;49.446;8.754;2024-03-22T05:40:56;13.60;63.00
37910;DHT22;23741;49.446;8.754;2024-03-22T05:42:56;13.60;62.60
37910;DHT22;23741;49.446;8.754;2024-03-22T05:44:57;13.60;62.30
37910;DHT22;23741;49.446;8.754;2024-03-22T05:46:58;13.60;62.50
37910;DHT22;23741;49.446;8.754;2024-03-22T05:48:59;13.60;62.70
37910;DHT22;23741;49.446;8.754;2024-03-22T05:51:00;13.60;62.80
37910;DHT22;23741;49.446;8.754;2024-03-22T05:53:01;13.60;63.00
37910;DHT22;23741;49.446;8.754;2024-03-22T05:55:02;13.60;62.50
37910;DHT22;23741;49.446;8.754;2024-03-22T05:57:03;13.60;62.80
37910;DHT22;23741;49.446;8.754;2024-03-22T05:59:05;13.60;62.90
37910;DHT22;23741;49.446;8.754;2024-03-22T06:01:06;13.60;62.90
37910;DHT22;23741;49.446;8.754;2024-03-22T06:03:07;13.60;62.80
37910;DHT22;23741;49.446;8.754;2024-03-22T06:05:08;13.60;62.50
37910;DHT22;23741;49.446;8.754;2024-03-22T06:07:09;13.60;62.30
37910;DHT22;23741;49.446;8.754;2024-03-22T06:09:10;13.60;62.50
37910;DHT22;23741;49.446;8.754;2024-03-22T06:11:13;13.60;63.00
37910;DHT22;23741;49.446;8.754;2024-03-22T06:13:14;13.60;62.90
37910;DHT22;23741;49.446;8.754;2024-03-22T06:15:15;13.60;62.70
37910;DHT22;23741;49.446;8.754;2024-03-22T06:17:16;13.60;63.00
37910;DHT22;23741;49.446;8.754;2024-03-22T06:19:17;13.60;62.70
37910;DHT22;23741;49.446;8.754;2024-03-22T06:21:18;13.60;63.00
37910;DHT22;23741;49.446;8.754;2024-03-22T06:23:26;13.60;62.70
37910;DHT22;23741;49.446;8.754;2024-03-22T06:25:27;13.60;63.00
37910;DHT22;23741;49.446;8.754;2024-03-22T06:27:27;13.70;62.90
37910;DHT22;23741;49.446;8.754;2024-03-22T06:29:28;13.70;62.70
37910;DHT22;23741;49.446;8.754;2024-03-22T06:31:29;13.70;62.90
37910;DHT22;23741;49.446;8.754;2024-03-22T06:33:30;13.70;62.80
37910;DHT22;23741;49.446;8.754;2024-03-22T06:35:31;13.70;62.70
37910;DHT22;23741;49.446;8.754;2024-03-22T06:37:31;13.70;63.10
37910;DHT22;23741;49.446;8.754;2024-03-22T06:39:32;13.70;63.20
37910;DHT22;23741;49.446;8.754;2024-03-22T06:41:36;13.70;63.20
37910;DHT22;23741;49.446;8.754;2024-03-22T06:43:38;13.70;63.20
37910;DHT22;23741;49.446;8.754;2024-03-22T06:45:38;13.70;63.20
37910;DHT22;23741;49.446;8.754;2024-03-22T06:47:39;13.80;63.20
37910;DHT22;23741;49.446;8.754;2024-03-22T06:49:40;13.80;63.20
37910;DHT22;23741;49.446;8.754;2024-03-22T06:51:41;13.80;63.30
37910;DHT22;23741;49.446;8.754;2024-03-22T06:53:42;13.80;63.40
37910;DHT22;23741;49.446;8.754;2024-03-22T06:55:43;13.80;63.50
37910;DHT22;23741;49.446;8.754;2024-03-22T06:57:45;13.80;63.70
37910;DHT22;23741;49.446;8.754;2024-03-22T06:59:46;13.80;63.70
37910;DHT22;23741;49.446;8.754;2024-03-22T07:01:47;13.90;63.60
37910;DHT22;23741;49.446;8.754;2024-03-22T07:03:48;13.90;63.90
37910;DHT22;23741;49.446;8.754;2024-03-22T07:05:49;13.90;64.00
37910;DHT22;23741;49.446;8.754;2024-03-22T07:07:49;13.90;64.00
37910;DHT22;23741;49.446;8.754;2024-03-22T07:09:51;14.00;63.80
37910;DHT22;23741;49.446;8.754;2024-03-22T07:11:52;13.90;63.70
37910;DHT22;23741;49.446;8.754;2024-03-22T07:13:53;14.00;63.60
37910;DHT22;23741;49.446;8.754;2024-03-22T07:15:53;14.00;63.50
37910;DHT22;23741;49.446;8.754;2024-03-22T07:17:54;14.00;63.50
37910;DHT22;23741;49.446;8.754;2024-03-22T07:19:55;14.10;63.50
37910;DHT22;23741;49.446;8.754;2024-03-22T07:21:57;14.10;63.50
37910;DHT22;23741;49.446;8.754;2024-03-22T07:24:00;14.20;63.60
37910;DHT22;23741;49.446;8.754;2024-03-22T07:26:01;14.20;63.30
37910;DHT22;23741;49.446;8.754;2024-03-22T07:28:01;14.20;63.10
37910;DHT22;23741;49.446;8.754;2024-03-22T07:30:02;14.20;63.00
37910;DHT22;23741;49.446;8.754;2024-03-22T07:32:03;14.30;63.10
37910;DHT22;23741;49.446;8.754;2024-03-22T07:34:04;14.30;63.20
37910;DHT22;23741;49.446;8.754;2024-03-22T07:36:06;14.30;63.10
37910;DHT22;23741;49.446;8.754;2024-03-22T07:38:07;14.30;63.10
37910;DHT22;23741;49.446;8.754;2024-03-22T07:40:08;14.30;63.20
37910;DHT22;23741;49.446;8.754;2024-03-22T07:42:08;14.40;63.30
37910;DHT22;23741;49.446;8.754;2024-03-22T07:44:09;14.40;63.20
37910;DHT22;23741;49.446;8.754;2024-03-22T07:46:11;14.50;63.30
37910;DHT22;23741;49.446;8.754;2024-03-22T07:48:12;14.50;63.20
37910;DHT22;23741;49.446;8.754;2024-03-22T07:50:13;14.50;63.30
37910;DHT22;23741;49.446;8.754;2024-03-22T07:52:14;14.60;63.20
37910;DHT22;23741;49.446;8.754;2024-03-22T07:54:15;14.60;63.20
37910;DHT22;23741;49.446;8.754;2024-03-22T07:56:16;14.60;63.10
37910;DHT22;23741;49.446;8.754;2024-03-22T07:58:16;14.70;63.10
37910;DHT22;23741;49.446;8.754;2024-03-22T08:00:17;14.80;63.10
37910;DHT22;23741;49.446;8.754;2024-03-22T08:02:18;14.80;63.10
37910;DHT22;23741;49.446;8.754;2024-03-22T08:04:19;14.80;63.10
37910;DHT22;23741;49.446;8.754;2024-03-22T08:06:20;14.90;63.20
37910;DHT22;23741;49.446;8.754;2024-03-22T08:08:21;15.00;63.20
37910;DHT22;23741;49.446;8.754;2024-03-22T08:10:21;15.00;63.20
37910;DHT22;23741;49.446;8.754;2024-03-22T08:12:24;15.10;63.20
37910;DHT22;23741;49.446;8.754;2024-03-22T08:14:25;15.10;63.00
37910;DHT22;23741;49.446;8.754;2024-03-22T08:16:26;15.20;62.80
37910;DHT22;23741;49.446;8.754;2024-03-22T08:18:28;15.20;62.90
37910;DHT22;23741;49.446;8.754;2024-03-22T08:20:29;15.30;62.70
37910;DHT22;23741;49.446;8.754;2024-03-22T08:22:33;15.30;62.50
37910;DHT22;23741;49.446;8.754;2024-03-22T08:24:33;15.40;62.30
37910;DHT22;23741;49.446;8.754;2024-03-22T08:26:34;15.40;62.30
37910;DHT22;23741;49.446;8.754;2024-03-22T08:28:35;15.40;62.30
37910;DHT22;23741;49.446;8.754;2024-03-22T08:30:39;15.50;62.20
37910;DHT22;23741;49.446;8.754;2024-03-22T08:32:40;15.50;62.10
37910;DHT22;23741;49.446;8.754;2024-03-22T08:34:41;15.60;62.30
37910;DHT22;23741;49.446;8.754;2024-03-22T08:36:42;15.60;62.20
37910;DHT22;23741;49.446;8.754;2024-03-22T08:38:43;15.60;62.10
37910;DHT22;23741;49.446;8.754;2024-03-22T08:40:43;15.70;62.10
37910;DHT22;23741;49.446;8.754;2024-03-22T08:42:44;15.70;62.20
37910;DHT22;23741;49.446;8.754;2024-03-22T08:44:45;15.70;62.30
37910;DHT22;23741;49.446;8.754;2024-03-22T08:46:46;15.80;62.10
37910;DHT22;23741;49.446;8.754;2024-03-22T08:48:48;15.80;61.90
37910;DHT22;23741;49.446;8.754;2024-03-22T08:50:48;15.80;62.00
37910;DHT22;23741;49.446;8.754;2024-03-22T08:52:49;15.80;61.90
37910;DHT22;23741;49.446;8.754;2024-03-22T08:54:50;15.90;62.00
37910;DHT22;23741;49.446;8.754;2024-03-22T08:56:51;15.90;61.90
37910;DHT22;23741;49.446;8.754;2024-03-22T08:58:52;16.00;61.80
37910;DHT22;23741;49.446;8.754;2024-03-22T09:00:53;16.00;61.90
37910;DHT22;23741;49.446;8.754;2024-03-22T09:02:54;16.00;61.80
37910;DHT22;23741;49.446;8.754;2024-03-22T09:04:55;16.00;61.80
37910;DHT22;23741;49.446;8.754;2024-03-22T09:06:56;16.00;61.70
37910;DHT22;23741;49.446;8.754;2024-03-22T09:08:59;16.10;61.70
37910;DHT22;23741;49.446;8.754;2024-03-22T09:10:59;16.10;61.70
37910;DHT22;23741;49.446;8.754;2024-03-22T09:13:00;16.10;61.50
37910;DHT22;23741;49.446;8.754;2024-03-22T09:15:01;16.20;61.40
37910;DHT22;23741;49.446;8.754;2024-03-22T09:17:02;16.20;61.30
37910;DHT22;23741;49.446;8.754;2024-03-22T09:19:03;16.20;61.10
37910;DHT22;23741;49.446;8.754;2024-03-22T09:21:04;16.20;61.20
37910;DHT22;23741;49.446;8.754;2024-03-22T09:23:05;16.30;61.40
37910;DHT22;23741;49.446;8.754;2024-03-22T09:25:06;16.30;61.10
37910;DHT22;23741;49.446;8.754;2024-03-22T09:27:07;16.30;61.00
37910;DHT22;23741;49.446;8.754;2024-03-22T09:29:12;16.30;61.10
37910;DHT22;23741;49.446;8.754;2024-03-22T09:31:13;16.30;61.00
37910;DHT22;23741;49.446;8.754;2024-03-22T09:33:14;16.40;61.10
37910;DHT22;23741;49.446;8.754;2024-03-22T09:35:15;16.40;61.10
37910;DHT22;23741;49.446;8.754;2024-03-22T09:37:17;16.50;61.10
37910;DHT22;23741;49.446;8.754;2024-03-22T09:39:18;16.50;61.20
37910;DHT22;23741;49.446;8.754;2024-03-22T09:41:21;16.50;61.20
37910;DHT22;23741;49.446;8.754;2024-03-22T09:43:24;16.50;61.00
37910;DHT22;23741;49.446;8.754;2024-03-22T09:45:27;16.60;61.10
37910;DHT22;23741;49.446;8.754;2024-03-22T09:47:29;16.60;61.20
37910;DHT22;23741;49.446;8.754;2024-03-22T09:49:30;16.60;61.10
37910;DHT22;23741;49.446;8.754;2024-03-22T09:51:30;16.70;61.10
37910;DHT22;23741;49.446;8.754;2024-03-22T09:53:32;16.70;61.10
37910;DHT22;23741;49.446;8.754;2024-03-22T09:55:33;16.80;61.00
37910;DHT22;23741;49.446;8.754;2024-03-22T09:57:38;16.80;60.90
37910;DHT22;23741;49.446;8.754;2024-03-22T09:59:39;16.90;60.80
37910;DHT22;23741;49.446;8.754;2024-03-22T10:01:40;16.90;60.60
37910;DHT22;23741;49.446;8.754;2024-03-22T10:03:42;17.00;60.50
37910;DHT22;23741;49.446;8.754;2024-03-22T10:05:43;17.00;60.40
37910;DHT22;23741;49.446;8.754;2024-03-22T10:07:44;17.10;60.40
37910;DHT22;23741;49.446;8.754;2024-03-22T10:09:45;17.10;60.40
37910;DHT22;23741;49.446;8.754;2024-03-22T10:11:47;17.20;60.50
37910;DHT22;23741;49.446;8.754;2024-03-22T10:13:49;17.20;60.30
37910;DHT22;23741;49.446;8.754;2024-03-22T10:15:51;17.30;60.10
37910;DHT22;23741;49.446;8.754;2024-03-22T10:17:56;17.30;60.00
37910;DHT22;23741;49.446;8.754;2024-03-22T10:19:57;17.40;59.90
37910;DHT22;23741;49.446;8.754;2024-03-22T10:24:02;17.40;59.80
37910;DHT22;23741;49.446;8.754;2024-03-22T10:26:02;17.50;60.60
37910;DHT22;23741;49.446;8.754;2024-03-22T10:28:04;17.50;59.80
37910;DHT22;23741;49.446;8.754;2024-03-22T10:30:08;17.50;59.80
37910;DHT22;23741;49.446;8.754;2024-03-22T10:32:10;17.60;59.60
37910;DHT22;23741;49.446;8.754;2024-03-22T10:34:12;17.60;59.50
37910;DHT22;23741;49.446;8.754;2024-03-22T10:36:13;17.60;59.50
37910;DHT22;23741;49.446;8.754;2024-03-22T10:38:15;17.60;59.50
37910;DHT22;23741;49.446;8.754;2024-03-22T10:40:17;17.70;59.30
37910;DHT22;23741;49.446;8.754;2024-03-22T10:42:18;17.70;59.50
37910;DHT22;23741;49.446;8.754;2024-03-22T10:44:20;17.70;59.50
37910;DHT22;23741;49.446;8.754;2024-03-22T10:46:28;17.80;59.50
37910;DHT22;23741;49.446;8.754;2024-03-22T10:48:30;17.80;59.40
37910;DHT22;23741;49.446;8.754;2024-03-22T10:50:31;17.80;59.40
37910;DHT22;23741;49.446;8.754;2024-03-22T10:52:34;17.90;59.50
37910;DHT22;23741;49.446;8.754;2024-03-22T10:54:40;17.90;59.30
37910;DHT22;23741;49.446;8.754;2024-03-22T10:56:41;18.00;59.40
37910;DHT22;23741;49.446;8.754;2024-03-22T10:58:42;18.00;59.30
37910;DHT22;23741;49.446;8.754;2024-03-22T11:00:43;18.00;59.20
37910;DHT22;23741;49.446;8.754;2024-03-22T11:02:44;18.00;59.20
37910;DHT22;23741;49.446;8.754;2024-03-22T11:04:53;18.10;59.00
37910;DHT22;23741;49.446;8.754;2024-03-22T11:06:54;18.10;59.00
37910;DHT22;23741;49.446;8.754;2024-03-22T11:09:01;18.10;58.90
37910;DHT22;23741;49.446;8.754;2024-03-22T11:11:10;18.10;59.00
37910;DHT22;23741;49.446;8.754;2024-03-22T11:13:11;18.10;58.80
37910;DHT22;23741;49.446;8.754;2024-03-22T11:15:12;18.20;58.70
37910;DHT22;23741;49.446;8.754;2024-03-22T11:17:13;18.20;58.60
37910;DHT22;23741;49.446;8.754;2024-03-22T11:19:15;18.20;58.70
37910;DHT22;23741;49.446;8.754;2024-03-22T11:21:17;18.20;58.50
37910;DHT22;23741;49.446;8.754;2024-03-22T11:23:18;18.20;58.60
37910;DHT22;23741;49.446;8.754;2024-03-22T11:25:18;18.20;58.50
37910;DHT22;23741;49.446;8.754;2024-03-22T11:27:20;18.20;58.60
37910;DHT22;23741;49.446;8.754;2024-03-22T11:29:21;18.30;58.60
37910;DHT22;23741;49.446;8.754;2024-03-22T11:31:22;18.30;58.60
37910;DHT22;23741;49.446;8.754;2024-03-22T11:33:27;18.30;58.60
37910;DHT22;23741;49.446;8.754;2024-03-22T11:35:30;18.30;58.50
37910;DHT22;23741;49.446;8.754;2024-03-22T11:37:31;18.30;58.50
37910;DHT22;23741;49.446;8.754;2024-03-22T11:39:33;18.30;58.40
37910;DHT22;23741;49.446;8.754;2024-03-22T11:41:35;18.30;58.20
37910;DHT22;23741;49.446;8.754;2024-03-22T11:43:36;18.30;58.40
37910;DHT22;23741;49.446;8.754;2024-03-22T11:45:37;18.40;58.40
37910;DHT22;23741;49.446;8.754;2024-03-22T11:47:38;18.40;58.30
37910;DHT22;23741;49.446;8.754;2024-03-22T11:49:39;18.40;58.30
37910;DHT22;23741;49.446;8.754;2024-03-22T11:51:40;18.40;58.40
37910;DHT22;23741;49.446;8.754;2024-03-22T11:53:48;18.40;58.30
37910;DHT22;23741;49.446;8.754;2024-03-22T11:55:49;18.40;58.30
37910;DHT22;23741;49.446;8.754;2024-03-22T11:57:50;18.50;58.20
37910;DHT22;23741;49.446;8.754;2024-03-22T11:59:52;18.50;58.30
37910;DHT22;23741;49.446;8.754;2024-03-22T12:01:59;18.50;58.30
37910;DHT22;23741;49.446;8.754;2024-03-22T12:04:00;18.60;58.40
37910;DHT22;23741;49.446;8.754;2024-03-22T12:06:01;18.60;58.60
37910;DHT22;23741;49.446;8.754;2024-03-22T12:08:04;18.70;58.50
37910;DHT22;23741;49.446;8.754;2024-03-22T12:10:05;18.80;58.50
37910;DHT22;23741;49.446;8.754;2024-03-22T12:12:07;18.80;58.20
37910;DHT22;23741;49.446;8.754;2024-03-22T12:14:09;18.90;58.40
37910;DHT22;23741;49.446;8.754;2024-03-22T12:16:10;19.00;58.20
37910;DHT22;23741;49.446;8.754;2024-03-22T12:18:13;19.00;58.20
37910;DHT22;23741;49.446;8.754;2024-03-22T12:20:14;19.00;58.10
37910;DHT22;23741;49.446;8.754;2024-03-22T12:22:15;19.10;57.70
37910;DHT22;23741;49.446;8.754;2024-03-22T12:24:16;19.10;57.70
37910;DHT22;23741;49.446;8.754;2024-03-22T12:26:17;19.10;57.90
37910;DHT22;23741;49.446;8.754;2024-03-22T12:28:18;19.20;57.80
37910;DHT22;23741;49.446;8.754;2024-03-22T12:30:19;19.20;57.40
37910;DHT22;23741;49.446;8.754;2024-03-22T12:32:20;19.30;57.10
37910;DHT22;23741;49.446;8.754;2024-03-22T12:34:21;19.30;57.30
37910;DHT22;23741;49.446;8.754;2024-03-22T12:36:22;19.30;57.30
37910;DHT22;23741;49.446;8.754;2024-03-22T12:38:23;19.40;57.20
37910;DHT22;23741;49.446;8.754;2024-03-22T12:40:24;19.40;57.10
37910;DHT22;23741;49.446;8.754;2024-03-22T12:42:25;19.40;57.10
37910;DHT22;23741;49.446;8.754;2024-03-22T12:44:26;19.50;57.10
37910;DHT22;23741;49.446;8.754;2024-03-22T12:46:27;19.50;57.60